Time;durP1;ratioP1;P1;durP2;ratioP2;P2;SDS_P1;SDS_P2;PMS_P1;PMS_P2;Temp;Humidity;BMP_temperature;BMP_pressure;BME280_temperature;BME280_humidity;BME280_pressure;Samples;Min_cycle;Max_cycle;Signal;HPM_P1;HPM_P2
2021/04/17 00:01:59;;;;;;;2.70;1.80;;;7.30;1.00;;;;;;5041896;28;20304;-78
2021/04/17 00:04:28;;;;;;;5.53;2.30;;;7.30;1.00;;;;;;5036275;28;20253;-80
2021/04/17 00:06:58;;;;;;;2.90;2.05;;;7.40;1.00;;;;;;5041829;28;20884;-80
2021/04/17 00:09:31;;;;;;;3.38;1.98;;;7.30;1.00;;;;;;5044819;28;20232;-79
2021/04/17 00:12:03;;;;;;;2.20;2.00;;;7.30;1.00;;;;;;5061053;28;20249;-78
2021/04/17 00:14:32;;;;;;;1.55;1.20;;;7.30;1.00;;;;;;5050122;28;20217;-81
2021/04/17 00:17:00;;;;;;;2.70;1.98;;;7.30;1.00;;;;;;5043762;28;20234;-79
2021/04/17 00:19:27;;;;;;;4.60;1.70;;;7.20;1.00;;;;;;5067644;28;20226;-77
2021/04/17 00:21:53;;;;;;;2.63;1.58;;;7.30;1.00;;;;;;5061907;28;20252;-79
2021/04/17 00:24:20;;;;;;;2.53;1.40;;;7.20;1.00;;;;;;5058747;28;20230;-78
2021/04/17 00:26:46;;;;;;;3.30;1.55;;;7.20;1.00;;;;;;5059331;28;20274;-77
2021/04/17 00:29:14;;;;;;;2.65;1.63;;;7.30;1.00;;;;;;5039675;28;20328;-77
2021/04/17 00:31:40;;;;;;;2.63;1.45;;;7.30;1.00;;;;;;5058331;28;20922;-79
2021/04/17 00:34:10;;;;;;;2.85;1.95;;;7.20;1.00;;;;;;5051600;28;20225;-79
2021/04/17 00:36:37;;;;;;;2.10;1.90;;;7.20;1.00;;;;;;5049070;28;20231;-80
2021/04/17 00:39:05;;;;;;;1.30;1.20;;;7.20;1.00;;;;;;5042608;28;21547;-78
2021/04/17 00:41:32;;;;;;;1.83;1.50;;;7.20;1.00;;;;;;5043783;28;20300;-81
2021/04/17 00:43:58;;;;;;;2.70;1.80;;;7.20;1.00;;;;;;5045198;28;20810;-79
2021/04/17 00:46:26;;;;;;;2.97;1.77;;;7.20;1.00;;;;;;5045648;28;20245;-81
2021/04/17 00:48:52;;;;;;;3.65;1.60;;;7.20;1.00;;;;;;5050085;28;20218;-81
2021/04/17 00:51:21;;;;;;;2.75;1.60;;;7.20;1.00;;;;;;5056043;28;20249;-82
2021/04/17 00:53:49;;;;;;;2.70;1.48;;;7.30;1.00;;;;;;5059601;28;20297;-79
2021/04/17 00:56:19;;;;;;;2.25;1.48;;;7.30;1.00;;;;;;5064461;28;20225;-77
2021/04/17 00:58:46;;;;;;;3.90;1.60;;;7.30;1.00;;;;;;5054911;28;20298;-78
2021/04/17 01:01:13;;;;;;;3.20;2.00;;;7.30;1.00;;;;;;5041533;28;20233;-77
2021/04/17 01:03:52;;;;;;;3.05;1.92;;;7.30;1.00;;;;;;5050437;28;20288;-79
2021/04/17 01:06:22;;;;;;;2.20;2.00;;;7.30;1.00;;;;;;5044788;28;21865;-80
2021/04/17 01:08:57;;;;;;;6.20;1.63;;;7.30;1.00;;;;;;5040242;28;20230;-77
2021/04/17 01:11:31;;;;;;;2.25;1.60;;;7.30;1.00;;;;;;5045107;28;20236;-78
2021/04/17 01:13:58;;;;;;;8.65;1.80;;;7.30;1.00;;;;;;5041729;28;20221;-79
2021/04/17 01:16:26;;;;;;;2.03;1.73;;;7.30;1.00;;;;;;5048119;28;20213;-78
2021/04/17 01:18:54;;;;;;;2.83;1.70;;;7.30;1.00;;;;;;5042394;28;20229;-77
2021/04/17 01:21:22;;;;;;;3.10;1.42;;;7.30;1.00;;;;;;5059273;28;20222;-78
2021/04/17 01:23:51;;;;;;;2.80;1.83;;;7.30;1.00;;;;;;5078933;28;20227;-79
2021/04/17 01:26:23;;;;;;;2.03;1.65;;;7.30;1.00;;;;;;5049391;28;20241;-77
2021/04/17 01:28:52;;;;;;;2.03;1.38;;;7.30;1.00;;;;;;5080090;28;20226;-78
2021/04/17 01:31:22;;;;;;;4.13;1.60;;;7.30;1.00;;;;;;5034992;28;20241;-79
2021/04/17 01:33:52;;;;;;;3.50;2.60;;;7.20;1.00;;;;;;5043152;28;20680;-81
2021/04/17 01:36:20;;;;;;;2.70;2.00;;;7.10;1.00;;;;;;5035839;28;20221;-80
2021/04/17 01:38:52;;;;;;;2.47;1.80;;;7.00;1.00;;;;;;5038268;28;20233;-78
2021/04/17 01:41:23;;;;;;;2.40;1.63;;;7.00;1.00;;;;;;5035825;28;20635;-78
2021/04/17 01:43:52;;;;;;;2.05;1.48;;;6.90;1.00;;;;;;5040574;28;20690;-78
2021/04/17 01:46:21;;;;;;;2.38;1.90;;;6.90;1.00;;;;;;5041417;28;20256;-79
2021/04/17 01:48:50;;;;;;;4.15;1.45;;;6.80;1.00;;;;;;5043795;28;20227;-77
2021/04/17 01:51:18;;;;;;;2.65;1.70;;;6.90;1.00;;;;;;5040922;28;20233;-79
2021/04/17 01:53:46;;;;;;;1.98;1.60;;;6.90;1.00;;;;;;5039030;28;20224;-77
2021/04/17 01:56:13;;;;;;;3.30;1.63;;;6.90;1.00;;;;;;5052335;28;20841;-78
2021/04/17 01:58:42;;;;;;;1.98;1.27;;;6.90;1.00;;;;;;5055483;28;20217;-80
2021/04/17 02:01:09;;;;;;;3.28;1.60;;;6.90;1.00;;;;;;5044320;28;20285;-79
2021/04/17 02:03:40;;;;;;;1.88;1.38;;;6.90;1.00;;;;;;5055817;28;20285;-78
2021/04/17 02:06:06;;;;;;;3.67;1.80;;;6.90;1.00;;;;;;5065827;28;20220;-76
2021/04/17 02:08:39;;;;;;;3.08;1.73;;;6.90;1.00;;;;;;5060922;28;20203;-75
2021/04/17 02:11:07;;;;;;;2.47;1.70;;;6.90;1.00;;;;;;5064008;28;20214;-77
2021/04/17 02:13:35;;;;;;;4.63;1.63;;;6.90;1.00;;;;;;5056990;28;20221;-76
2021/04/17 02:16:08;;;;;;;2.75;1.60;;;6.90;1.00;;;;;;5054331;28;20329;-77
2021/04/17 02:18:47;;;;;;;3.25;2.00;;;6.90;1.00;;;;;;5037821;28;20222;-79
2021/04/17 02:21:19;;;;;;;3.15;2.05;;;6.90;1.00;;;;;;5035858;28;20236;-78
2021/04/17 02:23:46;;;;;;;2.58;2.15;;;7.00;1.00;;;;;;5067114;28;20317;-80
2021/04/17 02:26:13;;;;;;;1.80;1.70;;;7.00;1.00;;;;;;5038551;28;20252;-79
2021/04/17 02:28:41;;;;;;;2.50;1.77;;;7.00;1.00;;;;;;5031262;28;20233;-79
2021/04/17 02:31:08;;;;;;;1.90;1.77;;;7.00;1.00;;;;;;5035607;28;20218;-77
2021/04/17 02:33:35;;;;;;;3.40;2.03;;;7.00;1.00;;;;;;5041292;28;20287;-81
2021/04/17 02:36:01;;;;;;;3.58;1.90;;;7.00;1.00;;;;;;5039009;28;20233;-77
2021/04/17 02:38:28;;;;;;;2.85;1.50;;;7.00;1.00;;;;;;5051087;28;20300;-80
2021/04/17 02:40:55;;;;;;;2.97;1.83;;;7.00;1.00;;;;;;5040205;28;20219;-76
2021/04/17 02:43:22;;;;;;;2.47;1.80;;;7.10;1.00;;;;;;5055755;28;20225;-80
2021/04/17 02:45:51;;;;;;;2.40;1.60;;;7.10;1.00;;;;;;5040824;28;20301;-79
2021/04/17 02:48:19;;;;;;;1.50;1.40;;;7.10;1.00;;;;;;5037855;28;20257;-76
2021/04/17 02:50:46;;;;;;;2.80;1.45;;;7.10;1.00;;;;;;5069730;28;20335;-78
2021/04/17 02:53:13;;;;;;;3.20;2.10;;;7.10;1.00;;;;;;5068067;28;20222;-79
2021/04/17 02:55:40;;;;;;;1.92;1.50;;;7.10;1.00;;;;;;5034653;28;20225;-78
2021/04/17 02:58:06;;;;;;;4.15;1.73;;;7.10;1.00;;;;;;5042352;28;20214;-78
2021/04/17 03:00:32;;;;;;;3.28;2.28;;;7.10;1.00;;;;;;5038941;28;20234;-79
2021/04/17 03:02:58;;;;;;;1.65;1.55;;;7.10;1.00;;;;;;5040900;28;20226;-79
2021/04/17 03:05:26;;;;;;;2.25;1.73;;;7.10;1.00;;;;;;5036997;28;20372;-77
2021/04/17 03:07:52;;;;;;;2.35;1.80;;;7.10;1.00;;;;;;5048218;28;20206;-76
2021/04/17 03:10:19;;;;;;;5.05;1.65;;;7.10;1.00;;;;;;5064012;28;20240;-78
2021/04/17 03:12:46;;;;;;;3.95;1.77;;;7.10;1.00;;;;;;5046333;28;20280;-77
2021/04/17 03:15:13;;;;;;;5.30;2.03;;;7.20;1.00;;;;;;5039395;28;20268;-78
2021/04/17 03:17:39;;;;;;;10.98;2.65;;;7.20;1.00;;;;;;5040668;28;21006;-79
2021/04/17 03:20:08;;;;;;;2.55;2.15;;;7.10;1.00;;;;;;5040414;28;20672;-79
2021/04/17 03:22:36;;;;;;;3.35;2.35;;;7.20;1.00;;;;;;5041203;28;20302;-78
2021/04/17 03:25:04;;;;;;;2.53;1.70;;;7.20;1.00;;;;;;5032448;28;20229;-79
2021/04/17 03:27:30;;;;;;;7.50;1.90;;;7.20;1.00;;;;;;5036882;28;20270;-79
2021/04/17 03:29:56;;;;;;;3.08;1.85;;;7.20;1.00;;;;;;5034980;28;20599;-78
2021/04/17 03:32:23;;;;;;;4.95;2.28;;;7.30;1.00;;;;;;5035287;28;20246;-79
2021/04/17 03:34:50;;;;;;;3.95;1.85;;;7.30;1.00;;;;;;5083746;28;20225;-78
2021/04/17 03:37:16;;;;;;;3.78;1.70;;;7.30;1.00;;;;;;5083164;28;20233;-77
2021/04/17 03:39:44;;;;;;;3.50;2.10;;;7.40;1.00;;;;;;5078133;28;20231;-75
2021/04/17 03:42:11;;;;;;;3.97;2.20;;;7.40;1.00;;;;;;5052143;28;20228;-80
2021/04/17 03:44:37;;;;;;;3.35;2.42;;;7.40;1.00;;;;;;5063740;28;20295;-78
2021/04/17 03:47:04;;;;;;;4.60;1.98;;;7.40;1.00;;;;;;5062693;28;20277;-78
2021/04/17 03:49:30;;;;;;;3.90;1.85;;;7.40;1.00;;;;;;5064864;28;20229;-76
2021/04/17 03:51:57;;;;;;;3.70;1.60;;;7.40;1.00;;;;;;5058107;28;20228;-77
2021/04/17 03:54:23;;;;;;;2.65;1.50;;;7.40;1.00;;;;;;5047670;28;20256;-76
2021/04/17 03:56:50;;;;;;;3.90;2.50;;;7.40;1.00;;;;;;5054887;28;20217;-76
2021/04/17 03:59:17;;;;;;;5.28;1.60;;;7.40;1.00;;;;;;5056996;28;20217;-77
2021/04/17 04:01:44;;;;;;;2.80;1.48;;;7.50;1.00;;;;;;5056346;28;20231;-77
2021/04/17 04:04:10;;;;;;;3.03;2.05;;;7.40;1.00;;;;;;5058680;28;21120;-79
2021/04/17 04:06:36;;;;;;;9.07;1.70;;;7.40;1.00;;;;;;5057082;28;20228;-77
2021/04/17 04:09:03;;;;;;;4.95;1.98;;;7.40;1.00;;;;;;5055313;28;20229;-79
2021/04/17 04:11:29;;;;;;;5.22;1.70;;;7.40;1.00;;;;;;5040941;28;20233;-78
2021/04/17 04:13:57;;;;;;;2.75;2.00;;;7.30;1.00;;;;;;5083090;28;20606;-78
2021/04/17 04:16:24;;;;;;;3.10;2.00;;;7.40;1.00;;;;;;5059216;28;20210;-78
2021/04/17 04:18:50;;;;;;;3.05;1.88;;;7.40;1.00;;;;;;5059644;28;20209;-77
2021/04/17 04:21:17;;;;;;;4.10;1.80;;;7.40;1.00;;;;;;5042145;28;20234;-77
2021/04/17 04:23:44;;;;;;;3.33;2.92;;;7.40;1.00;;;;;;5044744;28;20716;-81
2021/04/17 04:26:11;;;;;;;10.35;8.82;;;7.40;1.00;;;;;;5044124;28;20228;-76
2021/04/17 04:28:37;;;;;;;5.35;3.28;;;7.40;1.00;;;;;;5054982;28;20232;-77
2021/04/17 04:31:05;;;;;;;5.78;2.60;;;7.40;1.00;;;;;;5053347;28;20225;-81
2021/04/17 04:33:31;;;;;;;6.00;2.85;;;7.40;1.00;;;;;;5058223;28;20276;-78
2021/04/17 04:35:57;;;;;;;2.20;2.00;;;7.40;1.00;;;;;;5043665;28;20231;-79
2021/04/17 04:38:24;;;;;;;3.25;1.70;;;7.40;1.00;;;;;;5033593;28;20701;-77
2021/04/17 04:40:53;;;;;;;5.03;2.25;;;7.40;1.00;;;;;;5040708;28;20221;-80
2021/04/17 04:43:20;;;;;;;3.15;1.63;;;7.40;1.00;;;;;;5040104;28;21054;-80
2021/04/17 04:45:46;;;;;;;3.00;1.80;;;7.40;1.00;;;;;;5073585;28;21338;-79
2021/04/17 04:48:14;;;;;;;9.68;2.50;;;7.40;1.00;;;;;;5042178;28;20339;-80
2021/04/17 04:50:40;;;;;;;3.20;1.65;;;7.40;1.00;;;;;;5042007;28;20229;-79
2021/04/17 04:53:07;;;;;;;6.25;2.30;;;7.40;1.00;;;;;;5041625;28;20420;-82
2021/04/17 04:55:33;;;;;;;2.70;1.55;;;7.50;1.00;;;;;;5039232;28;20226;-79
2021/04/17 04:58:05;;;;;;;4.97;1.80;;;7.50;1.00;;;;;;5038467;28;20245;-79
2021/04/17 05:00:32;;;;;;;4.70;2.00;;;7.50;1.00;;;;;;5051134;28;20256;-81
2021/04/17 05:02:59;;;;;;;2.00;1.80;;;7.60;1.00;;;;;;5066588;28;20256;-76
2021/04/17 05:05:26;;;;;;;2.50;1.80;;;7.60;1.00;;;;;;5059671;28;20225;-79
2021/04/17 05:07:52;;;;;;;3.45;2.60;;;7.60;1.00;;;;;;5042495;28;20920;-81
2021/04/17 05:10:19;;;;;;;1.92;1.63;;;7.60;1.00;;;;;;5045116;28;20312;-78
2021/04/17 05:12:45;;;;;;;5.55;2.08;;;7.60;1.00;;;;;;5058316;28;20225;-77
2021/04/17 05:15:12;;;;;;;4.68;2.10;;;7.50;1.00;;;;;;5058096;28;20194;-78
2021/04/17 05:17:38;;;;;;;2.10;1.90;;;7.60;1.00;;;;;;5062158;28;20290;-79
2021/04/17 05:20:06;;;;;;;3.00;1.55;;;7.60;1.00;;;;;;5061167;28;20318;-79
2021/04/17 05:22:34;;;;;;;4.00;1.90;;;7.60;1.00;;;;;;5063986;28;20217;-78
2021/04/17 05:25:01;;;;;;;1.95;1.58;;;7.50;1.00;;;;;;5068337;28;20229;-77
2021/04/17 05:27:27;;;;;;;2.25;1.75;;;7.60;1.00;;;;;;5060712;28;20250;-76
2021/04/17 05:29:54;;;;;;;6.78;1.73;;;7.60;1.00;;;;;;5066658;28;20276;-77
2021/04/17 05:32:20;;;;;;;3.20;1.95;;;7.60;1.00;;;;;;5069332;28;20214;-77
2021/04/17 05:34:47;;;;;;;3.67;2.00;;;7.60;1.00;;;;;;5067739;28;20237;-77
2021/04/17 05:37:14;;;;;;;4.75;1.80;;;7.70;1.00;;;;;;5065619;28;20214;-80
2021/04/17 05:39:41;;;;;;;3.88;2.42;;;7.70;1.00;;;;;;5060484;28;20223;-78
2021/04/17 05:42:08;;;;;;;2.65;2.22;;;7.70;1.00;;;;;;5062047;28;20334;-75
2021/04/17 05:44:34;;;;;;;2.63;1.85;;;7.70;1.00;;;;;;5065266;28;21174;-76
2021/04/17 05:47:01;;;;;;;3.00;2.08;;;7.60;1.00;;;;;;5060472;28;20248;-78
2021/04/17 05:49:27;;;;;;;4.07;2.95;;;7.60;1.00;;;;;;5063973;28;20247;-78
2021/04/17 05:51:53;;;;;;;5.38;2.13;;;7.60;1.00;;;;;;5057335;28;20233;-75
2021/04/17 05:54:20;;;;;;;3.60;2.25;;;7.70;1.00;;;;;;5064546;28;20242;-76
2021/04/17 05:56:48;;;;;;;6.28;2.53;;;7.80;1.00;;;;;;5063454;28;20230;-77
2021/04/17 05:59:15;;;;;;;4.13;2.38;;;7.70;1.00;;;;;;5062378;28;20287;-77
2021/04/17 06:01:41;;;;;;;4.03;2.30;;;7.70;1.00;;;;;;5059146;28;20217;-77
2021/04/17 06:04:08;;;;;;;6.97;2.63;;;7.70;1.00;;;;;;5061180;28;20842;-78
2021/04/17 06:06:34;;;;;;;3.95;1.80;;;7.70;1.00;;;;;;5063496;28;20260;-77
2021/04/17 06:09:00;;;;;;;5.30;2.45;;;7.80;1.00;;;;;;5063950;28;20229;-77
2021/04/17 06:11:28;;;;;;;3.47;2.50;;;7.80;1.00;;;;;;5065788;28;20233;-77
2021/04/17 06:13:55;;;;;;;4.22;2.60;;;7.80;1.00;;;;;;5067170;28;20218;-77
2021/04/17 06:16:22;;;;;;;4.80;2.25;;;7.80;1.00;;;;;;5058668;28;20226;-80
2021/04/17 06:18:48;;;;;;;3.33;1.92;;;7.90;1.00;;;;;;5055789;28;20245;-76
2021/04/17 06:21:14;;;;;;;2.33;1.58;;;7.90;1.00;;;;;;5053000;28;20226;-77
2021/04/17 06:23:41;;;;;;;2.83;2.15;;;7.90;1.00;;;;;;5052939;28;21319;-79
2021/04/17 06:26:07;;;;;;;4.57;1.92;;;7.90;1.00;;;;;;5055986;28;20846;-78
2021/04/17 06:28:35;;;;;;;2.92;2.25;;;7.90;1.00;;;;;;5055715;28;20226;-79
2021/04/17 06:31:06;;;;;;;3.63;2.33;;;7.90;1.00;;;;;;5058520;28;20225;-79
2021/04/17 06:33:34;;;;;;;4.18;2.45;;;7.90;1.00;;;;;;5045417;28;20325;-80
2021/04/17 06:36:03;;;;;;;4.05;2.40;;;8.00;1.00;;;;;;5045168;28;20281;-81
2021/04/17 06:38:30;;;;;;;5.10;2.55;;;7.90;1.00;;;;;;5044062;28;20231;-83
2021/04/17 06:40:56;;;;;;;6.95;3.10;;;7.90;1.00;;;;;;5044296;28;20228;-82
2021/04/17 06:43:23;;;;;;;4.00;2.47;;;7.90;1.00;;;;;;5054736;28;20423;-78
2021/04/17 06:45:54;;;;;;;6.70;3.15;;;7.90;1.00;;;;;;5048858;28;20226;-81
2021/04/17 06:48:23;;;;;;;6.40;3.30;;;8.00;1.00;;;;;;5046613;28;20238;-81
2021/04/17 06:50:51;;;;;;;1.95;1.70;;;8.00;1.00;;;;;;5041551;28;20297;-81
2021/04/17 06:53:20;;;;;;;3.20;2.22;;;8.10;1.00;;;;;;5059695;28;20189;-82
2021/04/17 06:55:50;;;;;;;6.38;2.60;;;8.10;1.00;;;;;;5046255;28;21118;-78
2021/04/17 06:58:18;;;;;;;3.28;1.92;;;8.20;1.00;;;;;;5066857;28;20238;-83
2021/04/17 07:00:47;;;;;;;5.82;2.47;;;8.10;1.00;;;;;;5058511;28;20252;-85
2021/04/17 07:03:16;;;;;;;6.03;4.78;;;8.10;1.00;;;;;;5054418;28;20201;-84
2021/04/17 07:05:44;;;;;;;5.38;2.63;;;8.20;1.00;;;;;;5059292;28;20225;-81
2021/04/17 07:08:12;;;;;;;16.73;15.30;;;8.30;1.00;;;;;;5039282;28;20241;-80
2021/04/17 07:10:39;;;;;;;5.68;3.10;;;8.40;1.00;;;;;;5075149;28;20210;-78
2021/04/17 07:13:08;;;;;;;4.95;2.67;;;8.50;1.00;;;;;;5057750;28;20225;-82
2021/04/17 07:15:35;;;;;;;6.65;2.45;;;8.60;1.00;;;;;;5045758;28;20763;-81
2021/04/17 07:18:34;;;;;;;6.93;2.70;;;8.60;1.00;;;;;;5073395;28;20233;-82
2021/04/17 07:21:28;;;;;;;4.07;2.88;;;8.70;1.00;;;;;;5078626;28;20226;-81
2021/04/17 07:23:55;;;;;;;4.32;2.50;;;8.70;1.00;;;;;;5039871;28;20226;-80
2021/04/17 07:26:24;;;;;;;6.72;2.83;;;8.70;1.00;;;;;;5039659;28;20238;-81
2021/04/17 07:29:05;;;;;;;4.38;3.03;;;8.80;1.00;;;;;;5044356;28;20238;-79
2021/04/17 07:31:34;;;;;;;9.10;2.90;;;8.90;1.00;;;;;;5041081;28;20225;-79
2021/04/17 07:34:13;;;;;;;4.80;2.90;;;8.90;1.00;;;;;;5044884;28;20215;-80
2021/04/17 07:36:52;;;;;;;3.90;2.50;;;9.00;1.00;;;;;;5048916;28;20316;-79
2021/04/17 07:39:36;;;;;;;9.90;3.13;;;9.10;1.00;;;;;;5048257;28;20238;-80
2021/04/17 07:42:06;;;;;;;7.50;3.10;;;9.20;1.00;;;;;;5048530;28;20226;-79
2021/04/17 07:44:37;;;;;;;6.32;3.17;;;9.10;1.00;;;;;;5047007;28;20233;-81
2021/04/17 07:47:04;;;;;;;4.20;2.90;;;9.20;1.00;;;;;;5038436;28;20234;-80
2021/04/17 07:49:31;;;;;;;5.57;2.42;;;9.40;1.00;;;;;;5068144;28;20343;-79
2021/04/17 07:52:04;;;;;;;5.82;2.83;;;9.50;1.00;;;;;;5037556;28;20309;-78
2021/04/17 07:54:30;;;;;;;8.05;3.15;;;9.70;1.00;;;;;;5039700;28;20226;-78
2021/04/17 07:57:03;;;;;;;5.75;2.55;;;9.80;1.00;;;;;;5040743;28;20922;-80
2021/04/17 07:59:31;;;;;;;7.43;5.78;;;9.80;1.00;;;;;;5040712;28;20304;-78
2021/04/17 08:01:58;;;;;;;6.20;3.00;;;10.00;1.00;;;;;;5035023;28;20294;-78
2021/04/17 08:04:27;;;;;;;9.25;4.97;;;10.10;1.00;;;;;;5040125;28;20226;-79
2021/04/17 08:06:55;;;;;;;8.65;6.07;;;10.20;1.00;;;;;;5031404;28;20231;-79
2021/04/17 08:09:24;;;;;;;6.50;3.20;;;10.40;1.00;;;;;;5045917;28;20227;-78
2021/04/17 08:11:52;;;;;;;5.43;4.20;;;10.50;1.00;;;;;;5065616;28;20869;-86
2021/04/17 08:14:22;;;;;;;10.13;5.43;;;10.70;1.00;;;;;;5064688;28;20217;-86
2021/04/17 08:16:49;;;;;;;6.60;3.07;;;11.00;1.00;;;;;;5080254;28;20451;-86
2021/04/17 08:19:17;;;;;;;5.65;3.60;;;11.00;1.00;;;;;;5053287;28;21517;-86
2021/04/17 08:21:44;;;;;;;10.60;5.63;;;11.00;1.00;;;;;;5057481;28;20271;-84
2021/04/17 08:24:13;;;;;;;6.07;3.80;;;10.90;1.00;;;;;;5077251;28;20429;-83
2021/04/17 08:26:40;;;;;;;9.75;3.67;;;11.00;1.00;;;;;;5041230;28;20538;-83
2021/04/17 08:29:07;;;;;;;5.60;3.70;;;11.10;1.00;;;;;;5038601;28;20229;-80
2021/04/17 08:31:35;;;;;;;10.33;3.47;;;11.20;1.00;;;;;;5043094;28;20238;-81
2021/04/17 08:34:10;;;;;;;5.10;2.80;;;11.40;1.00;;;;;;5055633;28;20440;-78
2021/04/17 08:36:38;;;;;;;5.20;3.70;;;11.60;1.00;;;;;;5035074;28;20703;-82
2021/04/17 08:39:06;;;;;;;5.57;2.97;;;11.90;1.00;;;;;;5036209;28;20462;-82
2021/04/17 08:41:42;;;;;;;6.83;3.37;;;11.70;1.00;;;;;;5031598;28;20525;-80
2021/04/17 08:44:25;;;;;;;7.87;3.13;;;11.50;1.00;;;;;;5040116;28;20992;-79
2021/04/17 08:46:52;;;;;;;14.70;4.13;;;11.50;1.00;;;;;;5072174;28;20433;-79
2021/04/17 08:49:25;;;;;;;5.37;3.40;;;11.80;1.00;;;;;;5039289;28;20441;-79
2021/04/17 08:51:51;;;;;;;9.63;3.33;;;12.30;1.00;;;;;;5037975;28;20897;-77
2021/04/17 08:54:23;;;;;;;5.10;3.50;;;12.60;1.00;;;;;;5068886;28;21086;-79
2021/04/17 08:56:54;;;;;;;6.83;3.60;;;12.80;1.00;;;;;;5041391;28;20472;-81
2021/04/17 08:59:22;;;;;;;6.73;2.50;;;13.00;1.00;;;;;;5043233;28;20535;-78
2021/04/17 09:01:50;;;;;;;9.17;4.67;;;13.20;1.00;;;;;;5046232;28;20496;-77
2021/04/17 09:04:17;;;;;;;8.10;3.13;;;13.10;1.00;;;;;;5043065;28;20468;-79
2021/04/17 09:06:45;;;;;;;5.23;3.43;;;13.10;1.00;;;;;;5045211;28;20491;-80
2021/04/17 09:09:34;;;;;;;5.80;5.20;;;13.00;1.00;;;;;;5048689;28;20417;-79
2021/04/17 09:12:24;;;;;;;6.20;3.37;;;12.90;1.00;;;;;;5063010;28;20450;-79
2021/04/17 09:14:58;;;;;;;4.83;2.87;;;12.80;1.00;;;;;;5044069;28;20412;-78
2021/04/17 09:17:36;;;;;;;4.37;3.10;;;12.80;1.00;;;;;;5046318;28;20443;-78
2021/04/17 09:20:04;;;;;;;9.10;3.47;;;13.00;1.00;;;;;;5041764;28;20410;-80
2021/04/17 09:22:50;;;;;;;6.77;3.70;;;13.20;1.00;;;;;;5036860;28;20528;-79
2021/04/17 09:25:42;;;;;;;5.13;3.90;;;13.50;1.00;;;;;;5038658;28;20464;-78
2021/04/17 09:28:11;;;;;;;8.57;3.93;;;13.70;1.00;;;;;;5047345;28;20477;-81
2021/04/17 09:30:38;;;;;;;31.73;6.37;;;13.80;1.00;;;;;;5035044;28;20491;-78
2021/04/17 09:33:06;;;;;;;8.60;4.97;;;13.90;1.00;;;;;;5037032;28;20420;-80
2021/04/17 09:35:36;;;;;;;7.37;4.10;;;14.10;1.00;;;;;;5042210;28;21236;-80
2021/04/17 09:38:11;;;;;;;6.50;4.30;;;14.30;1.00;;;;;;5032637;28;21953;-81
2021/04/17 09:40:42;;;;;;;11.50;4.07;;;14.40;1.00;;;;;;5037376;28;20409;-80
2021/04/17 09:43:21;;;;;;;4.77;3.37;;;14.70;1.00;;;;;;5045635;28;21535;-78
2021/04/17 09:45:49;;;;;;;7.70;5.30;;;15.00;1.00;;;;;;5037224;28;20417;-79
2021/04/17 09:48:17;;;;;;;7.17;4.53;;;15.30;1.00;;;;;;5068433;28;20558;-78
2021/04/17 09:50:44;;;;;;;6.93;4.53;;;16.10;1.00;;;;;;5037008;28;20479;-82
2021/04/17 09:53:14;;;;;;;19.90;11.60;;;17.40;1.00;;;;;;5040143;28;20439;-80
2021/04/17 09:55:49;;;;;;;8.47;3.83;;;17.90;1.00;;;;;;5043847;28;21075;-79
2021/04/17 09:58:22;;;;;;;9.90;5.47;;;18.20;1.00;;;;;;5036327;28;20532;-79
2021/04/17 10:00:48;;;;;;;7.70;4.57;;;18.70;1.00;;;;;;5042448;28;20433;-78
2021/04/17 10:03:25;;;;;;;6.40;4.67;;;19.40;1.00;;;;;;5048157;28;20465;-78
2021/04/17 10:05:51;;;;;;;8.00;4.57;;;20.60;1.00;;;;;;5055161;28;20508;-77
2021/04/17 10:08:32;;;;;;;8.67;4.30;;;21.40;1.00;;;;;;5067231;28;20444;-81
2021/04/17 10:10:59;;;;;;;5.30;3.60;;;22.00;1.00;;;;;;5065519;28;20544;-81
2021/04/17 10:13:49;;;;;;;6.27;4.00;;;22.60;1.00;;;;;;5064850;28;20408;-80
2021/04/17 10:17:06;;;;;;;8.20;6.20;;;23.60;1.00;;;;;;5071392;28;20425;-79
2021/04/17 10:19:45;;;;;;;9.20;5.00;;;23.30;1.00;;;;;;5073980;28;20433;-84
2021/04/17 10:22:23;;;;;;;6.30;4.57;;;21.50;1.00;;;;;;5075129;28;20508;-83
2021/04/17 10:25:11;;;;;;;9.90;4.80;;;20.90;1.00;;;;;;5047761;28;22637;-84
2021/04/17 10:27:48;;;;;;;7.60;6.83;;;20.80;1.00;;;;;;5055953;28;20646;-83
2021/04/17 10:30:18;;;;;;;7.13;4.60;;;20.60;1.00;;;;;;5061742;28;20494;-82
2021/04/17 10:32:44;;;;;;;7.30;4.50;;;20.40;1.00;;;;;;5054474;28;20519;-83
2021/04/17 10:35:14;;;;;;;8.60;4.93;;;19.80;1.00;;;;;;5052035;28;20426;-83
2021/04/17 10:37:44;;;;;;;6.80;5.43;;;19.40;1.00;;;;;;5050226;28;20496;-83
2021/04/17 10:40:13;;;;;;;6.47;4.07;;;19.20;1.00;;;;;;5066990;28;20409;-84
2021/04/17 10:42:46;;;;;;;8.53;4.70;;;19.00;1.00;;;;;;5085003;28;20498;-84
2021/04/17 10:45:13;;;;;;;8.87;4.93;;;18.40;1.00;;;;;;5045944;28;20543;-84
2021/04/17 10:47:41;;;;;;;8.33;6.10;;;17.90;1.00;;;;;;5052238;28;21287;-85
2021/04/17 10:50:24;;;;;;;9.50;5.77;;;17.70;1.00;;;;;;5054928;28;20527;-82
2021/04/17 10:53:00;;;;;;;7.27;4.63;;;17.80;1.00;;;;;;5051488;28;20477;-84
2021/04/17 10:55:33;;;;;;;8.50;5.17;;;18.30;1.00;;;;;;5052078;28;20557;-79
2021/04/17 10:57:59;;;;;;;9.47;6.13;;;18.80;1.00;;;;;;5052196;28;20465;-84
2021/04/17 11:00:30;;;;;;;7.90;4.70;;;19.10;1.00;;;;;;5050577;28;20543;-81
2021/04/17 11:02:58;;;;;;;8.20;5.03;;;19.00;1.00;;;;;;5049641;28;20432;-82
2021/04/17 11:05:29;;;;;;;7.93;4.80;;;19.30;1.00;;;;;;5054745;28;20460;-83
2021/04/17 11:08:00;;;;;;;6.30;5.30;;;19.90;1.00;;;;;;5049424;28;20418;-83
2021/04/17 11:10:31;;;;;;;8.20;5.20;;;20.70;1.00;;;;;;5054350;28;20451;-81
2021/04/17 11:12:58;;;;;;;10.83;5.80;;;22.20;1.00;;;;;;5081781;28;20416;-84
2021/04/17 11:15:43;;;;;;;7.10;4.53;;;23.70;1.00;;;;;;5055024;28;20449;-81
2021/04/17 11:18:14;;;;;;;9.33;6.53;;;25.00;1.00;;;;;;5059943;28;20478;-82
2021/04/17 11:20:56;;;;;;;8.60;6.90;;;24.10;1.00;;;;;;5070023;28;20447;-82
2021/04/17 11:23:52;;;;;;;8.40;5.67;;;23.70;1.00;;;;;;5065061;28;20438;-79
2021/04/17 11:26:21;;;;;;;8.07;5.87;;;23.30;1.00;;;;;;5098994;28;20434;-78
2021/04/17 11:28:50;;;;;;;6.60;5.20;;;22.80;1.00;;;;;;5067173;28;20454;-78
2021/04/17 11:31:20;;;;;;;9.77;6.67;;;22.70;1.00;;;;;;5066497;28;20405;-79
2021/04/17 11:33:49;;;;;;;9.30;6.47;;;22.40;1.00;;;;;;5064510;28;20523;-78
2021/04/17 11:36:16;;;;;;;9.33;6.07;;;21.40;1.00;;;;;;5058345;28;20495;-77
2021/04/17 11:38:43;;;;;;;11.63;5.93;;;20.30;1.00;;;;;;5060715;28;20505;-77
2021/04/17 11:41:10;;;;;;;7.30;6.50;;;19.60;1.00;;;;;;5056588;28;20437;-76
2021/04/17 11:43:36;;;;;;;9.63;5.23;;;18.80;1.00;;;;;;5056636;28;20453;-77
2021/04/17 11:46:03;;;;;;;9.87;6.60;;;18.20;1.00;;;;;;5059920;28;20422;-77
2021/04/17 11:48:30;;;;;;;8.00;6.27;;;17.60;1.00;;;;;;5063638;28;20468;-78
2021/04/17 11:50:58;;;;;;;10.50;6.33;;;17.20;1.00;;;;;;5063056;28;20441;-77
2021/04/17 11:53:24;;;;;;;7.50;5.20;;;16.80;1.00;;;;;;5059840;28;20439;-77
2021/04/17 11:55:52;;;;;;;7.40;5.90;;;16.60;1.00;;;;;;5062853;28;20419;-77
2021/04/17 11:58:19;;;;;;;7.30;6.13;;;16.40;1.00;;;;;;5058971;28;20424;-76
2021/04/17 12:00:46;;;;;;;9.00;6.03;;;16.20;1.00;;;;;;5059240;28;20450;-77
2021/04/17 12:03:15;;;;;;;8.57;5.87;;;16.00;1.00;;;;;;5061825;28;20584;-78
2021/04/17 12:05:44;;;;;;;11.40;7.13;;;15.90;1.00;;;;;;5058067;28;20498;-79
2021/04/17 12:08:12;;;;;;;10.30;6.50;;;16.00;1.00;;;;;;5052433;28;20529;-79
2021/04/17 12:10:38;;;;;;;8.83;5.70;;;16.20;1.00;;;;;;5091823;27;20454;-80
2021/04/17 12:13:05;;;;;;;10.07;6.13;;;16.40;1.00;;;;;;5038935;28;20454;-79
2021/04/17 12:15:31;;;;;;;10.30;5.90;;;16.60;1.00;;;;;;5049791;28;20422;-80
2021/04/17 12:18:00;;;;;;;8.17;5.50;;;16.80;1.00;;;;;;5047656;28;20492;-78
2021/04/17 12:20:28;;;;;;;10.53;6.10;;;17.30;1.00;;;;;;5051652;28;20427;-77
2021/04/17 12:22:54;;;;;;;9.13;6.80;;;17.60;1.00;;;;;;5045913;28;21428;-77
2021/04/17 12:25:22;;;;;;;7.23;4.90;;;18.50;1.00;;;;;;5037497;28;20456;-79
2021/04/17 12:27:49;;;;;;;10.13;6.80;;;19.40;1.00;;;;;;5048552;28;20507;-77
2021/04/17 12:30:17;;;;;;;7.33;6.63;;;19.40;1.00;;;;;;5045541;28;20460;-78
2021/04/17 12:32:43;;;;;;;9.50;7.17;;;19.30;1.00;;;;;;5048136;28;20505;-78
2021/04/17 12:35:12;;;;;;;8.73;6.87;;;18.80;1.00;;;;;;5055538;28;21586;-77
2021/04/17 12:37:38;;;;;;;9.53;7.03;;;18.20;1.00;;;;;;5053498;28;20436;-77
2021/04/17 12:40:06;;;;;;;7.27;6.20;;;17.70;1.00;;;;;;5045143;28;20463;-78
2021/04/17 12:42:34;;;;;;;8.50;6.80;;;17.30;1.00;;;;;;5041452;28;20453;-77
2021/04/17 12:45:00;;;;;;;7.97;7.13;;;16.90;1.00;;;;;;5045516;28;20500;-78
2021/04/17 12:47:27;;;;;;;8.43;6.60;;;16.70;1.00;;;;;;5038429;28;20483;-79
2021/04/17 12:50:06;;;;;;;7.70;6.70;;;16.60;1.00;;;;;;5057269;28;20413;-83
2021/04/17 12:52:38;;;;;;;8.77;6.87;;;16.40;1.00;;;;;;5103159;28;20469;-82
2021/04/17 12:55:24;;;;;;;8.70;7.70;;;16.40;1.00;;;;;;5233577;22;20431;-78
2021/04/17 12:58:01;;;;;;;9.80;7.47;;;16.30;1.00;;;;;;5078819;28;20472;-79
2021/04/17 13:00:31;;;;;;;7.77;6.57;;;16.30;1.00;;;;;;5073227;28;20481;-76
2021/04/17 13:02:57;;;;;;;9.80;7.30;;;16.50;1.00;;;;;;5075201;28;20538;-79
2021/04/17 13:05:24;;;;;;;21.03;9.37;;;16.50;1.00;;;;;;5065990;28;20468;-79
2021/04/17 13:07:50;;;;;;;9.50;6.90;;;16.20;1.00;;;;;;5087034;28;20428;-80
2021/04/17 13:10:17;;;;;;;14.30;8.43;;;16.00;1.00;;;;;;5080812;28;20485;-79
2021/04/17 13:12:44;;;;;;;11.53;7.00;;;15.80;1.00;;;;;;5067525;28;20461;-78
2021/04/17 13:15:13;;;;;;;8.63;7.43;;;15.60;1.00;;;;;;5073624;28;21749;-79